Licenciado Manuel Crescencio Rejon Int Airport
MMMD : now visible

Airfield :











YOU CAN JOIN US ON...

 
LOGIN :

Register | Disclaimer

   EN    FR    IT 

 









Legend :    VFR   Marginal VFR   IFR   Intensive IFR   Very Intensive IFR
Visi :
Ceiling :
>= 8 km
>= 3000ft
5 to 8 km
1000 to 3000 ft
1500m to 5 km
500 to 1000 ft
800 to 1500m
200 to 500 ft
< 800m
< 200 ft
Symbols :   Thunderstorms  Fog  Heavy snow  Heavy precipitations  Wind > 20 kt






- Airport Elevation : 38 ft
- IATA code : MID


MMMD - Licenciado Manuel Crescencio Rejon Int

CURRENT METAR :
  • 220444Z 16010KT 7SM FEW300 27/23 A2993 RMK 8/008

EXPIRED METARs :
  • 220345Z 12011KT 7SM SCT300 28/23 A2992 RMK 8/008
  • 220244Z 13011KT 7SM SCT300 29/23 A2989 RMK SLP116 52003 970 8/008
  • 220148Z 14012KT 7SM SCT300 30/23 A2988 RMK 8/008 HZY SC

TAF TAF MMMD
Valid from the 22 at 00:00 until the 23 at 06:00 UTC


212309Z 2200/2306 15015KT P6SM SCT020 BKN250 TX36/2220Z TN25/2212Z
FM221500 15012KT P6SM SCT015 SCT080
FM221800 16015KT P6SM BKN020CB OVC100
TEMPO 2221/2301 3SM TSRA
MMFR FIR / North America



MET'MAP, your aeronautical weather chart ! - Copyright ORBIFLY December 2007 - Disclaimer

ORBIFLY MET'MAP TEAM :

Programming & Development : Alexandra Zaïnal
Concept & original design : Baudouin d'Aumeries
Assistance for programming : Marc-Olivier Méhu
Technical & hardware support : Manuel Goepfert

Contact : metmap@orbifly.com




SOURCES & CREDITS :

   NOAA       Earth
Advisory